PWSweather.com
Personal Weather Stations
Station Observations
PHMDWX
Perry Hall, MD 21236

Perry Hall, MD 21236

Lat: 39.418318, Lon: -76.490039

Elevation: 305

Station Type: Davis Vantage Pro

Latest ConditionsUpdated 3:30:00 PM EDT Sunday, May 27, 2018
Currently Today's Max Today's Min Today's Average
Temperature 71.8°F22.1°C 85.7°F29.8°C 70.8°F21.6°C 75.5°F24.2°C
Dew Point 71.2°F21.8°C 73.8°F23.2°C 69.3°F20.7°C 71.3°F21.8°C
Winds 2.3 mph ENE3.7 kmh ENE 3.5 mph ENE5.6 kmh ENE - 0.6 mph 1.0 kmh
Wind Gusts 3.5 mph5.6 kmh 5.8 mph9.3 kmh - -
Humidity 98% 98% 65% 87%
Pressure 29.81 in1009.5 mb 29.84 in1010.5 mb 29.76 in1007.8 mb -
Precipitation - 1.35 in34.3 mm - -
Hour Temp Dew Point Humidity Winds Wind Gusts Pressure Precip Precip Rate Daily Precip Total
03:30 PM 71.8°F22.1°C 71.2°F21.8°C 98% 2.3 mph ENE3.7 kmh ENE 3.5 mph5.6 kmh 29.81 in1009.5 mb - 0.40 in10.2 mm 1.35 in34.3 mm
03:00 PM 72.1°F22.3°C 71.2°F21.8°C 97% Calm Calm 1.2 mph1.9 kmh 29.84 in1010.5 mb - 0.45 in11.4 mm 0.97 in24.6 mm
02:30 PM 70.8°F21.6°C 69.3°F20.7°C 95% Calm Calm -- 29.83 in1010.2 mb - 0.32 in8.1 mm 0.54 in13.7 mm
02:00 PM 72.4°F22.4°C 70.2°F21.2°C 93% 1.2 mph NE1.9 kmh NE 3.5 mph5.6 kmh 29.83 in1010.2 mb - 0.07 in1.8 mm 0.23 in5.8 mm
01:30 PM 76.9°F24.9°C 72.1°F22.3°C 85% 2.3 mph SE3.7 kmh SE 5.8 mph9.3 kmh 29.82 in1009.8 mb - 0.16 in4.1 mm 0.16 in4.1 mm
01:00 PM 82.5°F28.1°C 73.8°F23.2°C 75% 2.3 mph E3.7 kmh E 4.6 mph7.4 kmh 29.83 in1010.2 mb - 0.00 in0.0 mm 0.00 in0.0 mm
12:30 PM 85.7°F29.8°C 72.6°F22.6°C 65% 1.2 mph E1.9 kmh E 3.5 mph5.6 kmh 29.82 in1009.8 mb - 0.00 in0.0 mm 0.00 in0.0 mm
12:00 PM 83.4°F28.6°C 73.0°F22.8°C 71% 3.5 mph ENE5.6 kmh ENE 5.8 mph9.3 kmh 29.83 in1010.2 mb - 0.00 in0.0 mm 0.00 in0.0 mm
11:30 AM 79.9°F26.6°C 72.4°F22.4°C 78% Calm Calm 2.3 mph3.7 kmh 29.84 in1010.5 mb - 0.00 in0.0 mm 0.00 in0.0 mm
11:00 AM 79.6°F26.4°C 72.5°F22.5°C 79% 1.2 mph ENE1.9 kmh ENE 1.2 mph1.9 kmh 29.84 in1010.5 mb - 0.00 in0.0 mm 0.00 in0.0 mm
10:30 AM 80.7°F27.1°C 72.8°F22.7°C 77% 3.5 mph ENE5.6 kmh ENE 5.8 mph9.3 kmh 29.82 in1009.8 mb - 0.00 in0.0 mm 0.00 in0.0 mm
10:00 AM 79.4°F26.3°C 72.7°F22.6°C 80% 1.2 mph NE1.9 kmh NE 3.5 mph5.6 kmh 29.82 in1009.8 mb - 0.00 in0.0 mm 0.00 in0.0 mm
09:30 AM 77.7°F25.4°C 71.8°F22.1°C 82% Calm Calm -- 29.82 in1009.8 mb - 0.00 in0.0 mm 0.00 in0.0 mm
09:00 AM 76.5°F24.7°C 71.7°F22.1°C 85% Calm Calm 1.2 mph1.9 kmh 29.82 in1009.8 mb - 0.00 in0.0 mm 0.00 in0.0 mm
08:30 AM 75.3°F24.1°C 71.5°F21.9°C 88% Calm Calm 2.3 mph3.7 kmh 29.81 in1009.5 mb - 0.00 in0.0 mm 0.00 in0.0 mm
08:00 AM 74.6°F23.7°C 71.5°F21.9°C 90% Calm Calm -- 29.80 in1009.1 mb - 0.00 in0.0 mm 0.00 in0.0 mm
07:30 AM 73.9°F23.3°C 71.4°F21.9°C 92% Calm Calm -- 29.80 in1009.1 mb - 0.00 in0.0 mm 0.00 in0.0 mm
07:00 AM 73.5°F23.1°C 71.4°F21.9°C 93% Calm Calm -- 29.79 in1008.8 mb - 0.00 in0.0 mm 0.00 in0.0 mm
06:30 AM 73.0°F22.8°C 71.2°F21.8°C 94% 1.2 mph S1.9 kmh S 1.2 mph1.9 kmh 29.79 in1008.8 mb - 0.00 in0.0 mm 0.00 in0.0 mm
06:00 AM 72.7°F22.6°C 70.9°F21.6°C 94% Calm Calm -- 29.78 in1008.5 mb - 0.00 in0.0 mm 0.00 in0.0 mm
05:30 AM 72.5°F22.5°C 70.7°F21.5°C 94% Calm Calm 1.2 mph1.9 kmh 29.77 in1008.1 mb - 0.00 in0.0 mm 0.00 in0.0 mm
05:00 AM 72.3°F22.4°C 70.5°F21.4°C 94% Calm Calm 1.2 mph1.9 kmh 29.77 in1008.1 mb - 0.00 in0.0 mm 0.00 in0.0 mm
04:30 AM 72.5°F22.5°C 70.4°F21.3°C 93% Calm Calm -- 29.77 in1008.1 mb - 0.00 in0.0 mm 0.00 in0.0 mm
04:00 AM 72.7°F22.6°C 70.2°F21.2°C 92% Calm Calm 1.2 mph1.9 kmh 29.77 in1008.1 mb - 0.00 in0.0 mm 0.00 in0.0 mm
03:30 AM 73.0°F22.8°C 70.2°F21.2°C 91% Calm Calm 1.2 mph1.9 kmh 29.76 in1007.8 mb - 0.00 in0.0 mm 0.00 in0.0 mm
03:00 AM 73.0°F22.8°C 70.2°F21.2°C 91% Calm Calm 2.3 mph3.7 kmh 29.76 in1007.8 mb - 0.00 in0.0 mm 0.00 in0.0 mm
02:30 AM 73.5°F23.1°C 70.4°F21.3°C 90% Calm Calm 1.2 mph1.9 kmh 29.76 in1007.8 mb - 0.00 in0.0 mm 0.00 in0.0 mm
02:00 AM 74.0°F23.3°C 70.9°F21.6°C 90% Calm Calm 1.2 mph1.9 kmh 29.77 in1008.1 mb - 0.00 in0.0 mm 0.00 in0.0 mm
01:30 AM 74.6°F23.7°C 70.8°F21.6°C 88% Calm Calm -- 29.77 in1008.1 mb - 0.00 in0.0 mm 0.00 in0.0 mm
01:00 AM 74.9°F23.8°C 70.4°F21.3°C 86% Calm Calm 1.2 mph1.9 kmh 29.77 in1008.1 mb - 0.00 in0.0 mm 0.00 in0.0 mm
12:30 AM 75.4°F24.1°C 70.6°F21.4°C 85% Calm Calm 1.2 mph1.9 kmh 29.77 in1008.1 mb - 0.00 in0.0 mm 0.00 in0.0 mm
12:00 AM 75.8°F24.3°C 71.3°F21.8°C 86% Calm Calm 1.2 mph1.9 kmh 29.78 in1008.5 mb - 0.00 in0.0 mm 0.00 in0.0 mm